Logan Peak - 24 Hour Table
Date & TimeSolar
Radiation
(W/m²)
Wind
Speed
(mph)
Wind
Direction
(degrees)
Air
Temperature
(°F)
Relative
Humidity
(%)
Barometeric
Pressure
(inHg)
Max
Wind
Speed
(mph)
2021/09/24 07:00 34 6.9 281 45.8 44 30.06 10.3
2021/09/24 06:00 0 6.4 273 45.2 46 30.04 8.9
2021/09/24 05:00 0 4.9 272 45.3 51 30.04 8.9
2021/09/24 04:00 0 4.5 252 45.7 49 30.04 7.2
2021/09/24 03:00 0 2.3 252 44.9 52 30.04 4.9
2021/09/24 02:00 0 3.3 284 45.6 54 30.04 6.5
2021/09/24 01:00 0 4.8 14 45.1 54 30.04 10.7
2021/09/24 00:00 0 10.2 8 44.7 53 30.04 13.9
2021/09/23 23:00 0 12.6 17 44.9 56 30.04 16.6
2021/09/23 22:00 0 9.8 25 45.5 58 30.04 13.6
2021/09/23 21:00 0 4.7 40 46.5 54 30.04 9.6
2021/09/23 20:00 0 5.1 331 46.5 51 30.03 7.8
2021/09/23 19:00 6 8.8 320 46.1 52 30.02 14.5
2021/09/23 18:00 125 8.0 317 48.6 49 30.02 13.4
2021/09/23 17:00 345 9.9 305 49.3 41 30.02 15.4
2021/09/23 16:00 488 10.7 296 49.7 44 30.01 20.1
2021/09/23 15:00 622 10.8 297 49.5 44 30.01 17.2
2021/09/23 14:00 745 9.3 287 49.2 43 30.00 17.9
2021/09/23 13:00 792 6.5 294 48.9 49 30.02 11.6
2021/09/23 12:00 693 5.4 294 48.1 51 30.02 11.9
2021/09/23 11:00 678 4.7 253 48.5 53 30.02 11.6
2021/09/23 10:00 219 9.8 179 43.4 49 30.02 22.6
2021/09/23 09:00 49 12.3 287 41.5 66 30.01 30.0
2021/09/23 08:00 140 14.6 327 42.0 62 30.00 22.4